Time;durP1;ratioP1;P1;durP2;ratioP2;P2;SDS_P1;SDS_P2;PMS_P1;PMS_P2;Temp;Humidity;BMP_temperature;BMP_pressure;BME280_temperature;BME280_humidity;BME280_pressure;Samples;Min_cycle;Max_cycle;Signal;HPM_P1;HPM_P2
2021/07/03 00:02:06;;;;;;;18.67;9.98;;;13.70;97.50;;;;;;4879298;29;20145;-83
2021/07/03 00:04:32;;;;;;;18.17;9.85;;;13.70;97.40;;;;;;4862269;29;20494;-83
2021/07/03 00:06:58;;;;;;;20.70;10.82;;;13.60;97.60;;;;;;4877673;29;20501;-83
2021/07/03 00:09:23;;;;;;;19.17;10.88;;;13.60;97.60;;;;;;4877780;29;20057;-83
2021/07/03 00:11:58;;;;;;;16.52;10.40;;;13.60;97.40;;;;;;4877641;29;20444;-83
2021/07/03 00:14:27;;;;;;;18.17;10.38;;;13.50;97.40;;;;;;4877787;29;20048;-83
2021/07/03 00:16:58;;;;;;;18.55;10.02;;;13.50;97.50;;;;;;4877501;29;20112;-83
2021/07/03 00:19:25;;;;;;;18.88;10.98;;;13.40;97.30;;;;;;4877476;29;20462;-84
2021/07/03 00:21:50;;;;;;;22.25;10.60;;;13.40;97.50;;;;;;4877496;29;20355;-84
2021/07/03 00:24:17;;;;;;;21.33;11.30;;;13.40;97.40;;;;;;4877230;29;20041;-83
2021/07/03 00:26:44;;;;;;;18.17;10.68;;;13.40;97.60;;;;;;4877390;29;20108;-83
2021/07/03 00:29:09;;;;;;;22.88;10.45;;;13.40;97.50;;;;;;4877602;29;20141;-83
2021/07/03 00:31:40;;;;;;;21.85;11.23;;;13.30;97.60;;;;;;4877326;29;20108;-83
2021/07/03 00:34:10;;;;;;;19.75;10.68;;;13.30;97.50;;;;;;4873108;29;20029;-84
2021/07/03 00:36:40;;;;;;;18.15;9.98;;;13.20;97.40;;;;;;4862015;29;20025;-84
2021/07/03 00:39:06;;;;;;;20.42;10.95;;;13.30;97.60;;;;;;4877136;29;20119;-83
2021/07/03 00:41:35;;;;;;;21.45;10.57;;;13.10;97.50;;;;;;4877561;29;20125;-84
2021/07/03 00:44:10;;;;;;;16.88;10.15;;;13.10;97.50;;;;;;4877037;29;20025;-84
2021/07/03 00:46:36;;;;;;;18.80;10.20;;;;;;;;;;4877491;29;20054;-83
2021/07/03 00:49:18;;;;;;;16.48;9.82;;;13.20;97.50;;;;;;4877594;29;20073;-84
2021/07/03 00:52:44;;;;;;;18.35;9.73;;;13.10;97.40;;;;;;4876813;29;20021;-84
2021/07/03 00:56:22;;;;;;;17.75;9.63;;;13.00;97.60;;;;;;4843217;29;20103;-84
2021/07/03 01:03:01;;;;;;;;;;;;;;;;;;;;;
2021/07/03 01:09:25;;;;;;;;;;;;;;;;;;;;;
2021/07/03 01:12:13;;;;;;;;;;;;;;;;;;;;;
2021/07/03 01:15:07;;;;;;;26.88;12.05;;;;;;;;;;4732306;30;20047;-84
2021/07/03 01:17:57;;;;;;;26.13;12.93;;;13.00;97.60;;;;;;4731598;30;20080;-84
2021/07/03 01:20:38;;;;;;;26.67;13.27;;;13.00;97.90;;;;;;4758656;30;20043;-84
2021/07/03 01:23:07;;;;;;;30.77;13.75;;;13.00;98.00;;;;;;4766923;30;20054;-84
2021/07/03 01:25:32;;;;;;;24.70;12.35;;;13.00;98.10;;;;;;4772763;29;20033;-84
2021/07/03 01:28:14;;;;;;;28.27;14.35;;;13.10;98.20;;;;;;4840739;29;20409;-84
2021/07/03 01:30:45;;;;;;;28.17;13.48;;;13.20;98.20;;;;;;4875667;29;20021;-84
2021/07/03 01:33:11;;;;;;;27.10;13.93;;;13.20;98.30;;;;;;4861854;29;20052;-84
2021/07/03 01:35:53;;;;;;;26.02;13.60;;;13.20;98.30;;;;;;4879168;29;20466;-83
2021/07/03 01:38:23;;;;;;;22.42;13.02;;;13.30;98.20;;;;;;4877616;29;20389;-83
2021/07/03 01:41:01;;;;;;;;;;;;;;;;;;;;;
2021/07/03 01:44:18;;;;;;;;;;;;;;;;;;;;;
2021/07/03 01:50:24;;;;;;;17.15;8.82;;;13.30;98.00;;;;;;4879839;29;20021;-84
2021/07/03 01:53:03;;;;;;;17.33;9.52;;;13.30;98.10;;;;;;4875499;29;20033;-84
2021/07/03 01:55:52;;;;;;;14.90;8.35;;;13.20;98.00;;;;;;4879922;29;20127;-84
2021/07/03 01:58:46;;;;;;;16.35;8.98;;;13.20;97.90;;;;;;4879568;29;20044;-84
2021/07/03 02:04:13;;;;;;;;;;;;;;;;;;;;;
2021/07/03 02:07:12;;;;;;;17.05;8.40;;;13.20;97.90;;;;;;4879527;29;20031;-84
2021/07/03 02:09:56;;;;;;;17.98;9.43;;;13.10;97.90;;;;;;4856478;29;20033;-84
2021/07/03 02:27:12;;;;;;;24.75;12.38;;;12.80;97.80;;;;;;4760883;30;20024;-83
2021/07/03 02:29:43;;;;;;;20.60;10.98;;;12.90;98.00;;;;;;4804792;29;20045;-84
2021/07/03 02:32:26;;;;;;;23.60;11.52;;;12.80;98.00;;;;;;4794229;29;20542;-83
2021/07/03 02:39:05;;;;;;;21.05;9.95;;;12.80;97.80;;;;;;4828352;29;20646;-84
2021/07/03 02:42:15;;;;;;;19.33;9.80;;;12.70;97.80;;;;;;4826625;29;20073;-84
2021/07/03 02:45:05;;;;;;;;;;;;;;;;;;;;;
2021/07/03 02:47:31;;;;;;;21.13;9.43;;;12.60;97.80;;;;;;4863713;29;20037;-83
2021/07/03 02:49:56;;;;;;;26.63;10.65;;;12.60;97.90;;;;;;4880077;29;20119;-84
2021/07/03 02:52:25;;;;;;;22.98;9.98;;;12.60;97.90;;;;;;4878885;29;20034;-84
2021/07/03 02:55:01;;;;;;;19.67;8.80;;;12.60;97.90;;;;;;4878987;29;20501;-84
2021/07/03 02:58:05;;;;;;;22.15;9.63;;;12.60;97.90;;;;;;4874962;29;20438;-84
2021/07/03 03:00:36;;;;;;;18.98;9.35;;;12.50;97.80;;;;;;4856747;29;20135;-84
2021/07/03 03:03:12;;;;;;;21.60;10.23;;;12.60;98.00;;;;;;4878921;29;20021;-84
2021/07/03 03:06:18;;;;;;;19.52;9.23;;;12.50;98.00;;;;;;4878586;29;20359;-84
2021/07/03 03:09:07;;;;;;;;;;;12.50;98.00;;;;;;4880042;29;20029;-84
2021/07/03 03:11:54;;;;;;;16.27;8.65;;;12.50;98.00;;;;;;4879688;29;19907;-84
2021/07/03 03:14:47;;;;;;;22.77;11.77;;;12.50;98.00;;;;;;4878699;29;20040;-84
2021/07/03 03:17:15;;;;;;;20.88;8.93;;;12.40;98.00;;;;;;4863283;29;20561;-84
2021/07/03 03:19:52;;;;;;;21.27;9.60;;;12.50;98.10;;;;;;4862605;29;20560;-84
2021/07/03 03:23:19;;;;;;;20.38;9.73;;;12.50;98.10;;;;;;4875472;29;20033;-83
2021/07/03 03:26:05;;;;;;;22.58;10.38;;;12.50;98.10;;;;;;4878390;29;20029;-84
2021/07/03 03:29:33;;;;;;;;;;;;;;;;;;;;;
2021/07/03 03:32:43;;;;;;;;;;;;;;;;;;;;;
2021/07/03 03:35:28;;;;;;;25.67;11.05;;;12.70;98.30;;;;;;4884045;29;20092;-85
2021/07/03 03:42:23;;;;;;;;;;;;;;;;;;;;;
2021/07/03 03:45:12;;;;;;;22.42;10.15;;;12.80;98.20;;;;;;4895613;29;20032;-84
2021/07/03 03:47:57;;;;;;;18.10;9.85;;;12.90;98.20;;;;;;4880996;29;20182;-83
2021/07/03 03:50:22;;;;;;;;;;;12.80;98.10;;;;;;4895787;29;20115;-83
2021/07/03 03:53:25;;;;;;;16.67;8.55;;;12.80;98.10;;;;;;4895449;29;20395;-83
2021/07/03 03:56:29;;;;;;;16.85;8.50;;;12.80;98.10;;;;;;4882540;29;20116;-83
2021/07/03 03:59:56;;;;;;;15.90;8.57;;;12.80;98.20;;;;;;4878517;29;20049;-84
2021/07/03 04:03:17;;;;;;;18.83;8.82;;;12.80;98.10;;;;;;4873391;29;20465;-84
2021/07/03 04:06:42;;;;;;;17.13;8.60;;;12.80;98.20;;;;;;4877785;29;20081;-84
2021/07/03 04:12:33;;;;;;;18.08;9.48;;;12.80;98.20;;;;;;4877856;29;20064;-84
2021/07/03 04:15:06;;;;;;;16.17;8.25;;;12.80;98.20;;;;;;4877160;29;20025;-83
2021/07/03 04:17:32;;;;;;;19.73;9.23;;;12.80;98.20;;;;;;4877189;29;20144;-83
2021/07/03 04:19:58;;;;;;;20.80;9.68;;;12.80;98.30;;;;;;4877940;29;20468;-83
2021/07/03 04:22:27;;;;;;;18.02;8.75;;;12.90;98.30;;;;;;4878456;29;20025;-83
2021/07/03 04:25:06;;;;;;;14.82;8.73;;;12.90;98.30;;;;;;4877528;29;20033;-82
2021/07/03 04:27:46;;;;;;;14.02;8.45;;;12.90;98.30;;;;;;4877592;29;20029;-84
2021/07/03 04:30:16;;;;;;;15.30;8.63;;;13.00;98.30;;;;;;4862605;29;20033;-83
2021/07/03 04:32:42;;;;;;;13.77;8.02;;;13.00;98.30;;;;;;4878864;29;20051;-82
2021/07/03 04:39:31;;;;;;;;;;;;;;;;;;;;;
2021/07/03 04:42:36;;;;;;;15.73;9.18;;;13.20;98.40;;;;;;4871687;29;20088;-85
2021/07/03 04:48:49;;;;;;;14.70;8.25;;;13.40;98.60;;;;;;4850521;29;20045;-86
2021/07/03 04:51:48;;;;;;;;;;;;;;;;;;;;;
2021/07/03 05:03:19;;;;;;;13.73;8.55;;;13.90;98.90;;;;;;5436221;23;20065;-86
2021/07/03 05:05:45;;;;;;;14.93;8.77;;;14.10;98.90;;;;;;4869764;29;20485;-85
2021/07/03 05:08:11;;;;;;;15.23;8.68;;;14.20;99.20;;;;;;4899402;29;20093;-78
2021/07/03 05:10:36;;;;;;;16.58;8.95;;;14.40;99.30;;;;;;4905684;29;20056;-79
2021/07/03 05:13:02;;;;;;;14.48;8.50;;;14.70;99.40;;;;;;4906973;29;20029;-79
2021/07/03 05:15:28;;;;;;;15.18;8.90;;;14.80;99.50;;;;;;4900781;29;20028;-79
2021/07/03 05:17:54;;;;;;;13.20;7.93;;;15.00;99.50;;;;;;4911438;29;20024;-81
2021/07/03 05:20:20;;;;;;;13.93;7.47;;;15.30;99.60;;;;;;4903471;29;20047;-81
2021/07/03 05:22:46;;;;;;;13.82;8.13;;;15.40;99.50;;;;;;4904253;29;20064;-81
2021/07/03 05:25:12;;;;;;;13.60;7.55;;;15.60;99.50;;;;;;4899346;29;20108;-81
2021/07/03 05:27:39;;;;;;;13.48;7.53;;;15.80;99.50;;;;;;4903924;29;20044;-81
2021/07/03 05:30:06;;;;;;;14.95;7.80;;;16.00;99.60;;;;;;4901576;29;20021;-81
2021/07/03 05:32:32;;;;;;;12.32;7.00;;;16.30;99.50;;;;;;4902517;29;20032;-82
2021/07/03 05:34:58;;;;;;;12.88;7.60;;;16.50;99.50;;;;;;4905752;29;20099;-82
2021/07/03 05:37:23;;;;;;;12.32;6.60;;;16.50;99.30;;;;;;4906256;29;20051;-82
2021/07/03 05:39:49;;;;;;;11.93;6.82;;;16.60;99.10;;;;;;4905720;29;20130;-82
2021/07/03 05:42:15;;;;;;;13.63;6.82;;;16.70;98.90;;;;;;4901547;29;20075;-81
2021/07/03 05:44:41;;;;;;;11.52;6.20;;;16.70;98.90;;;;;;4903247;29;20035;-82
2021/07/03 05:47:06;;;;;;;10.68;6.05;;;16.80;98.90;;;;;;4903520;29;20469;-82
2021/07/03 05:49:33;;;;;;;11.85;6.10;;;16.90;98.90;;;;;;4901311;29;20032;-82
2021/07/03 05:51:59;;;;;;;12.95;6.10;;;16.90;99.00;;;;;;4900658;29;20104;-82
2021/07/03 05:54:24;;;;;;;13.32;6.65;;;17.00;98.90;;;;;;4898996;29;20115;-83
2021/07/03 05:56:50;;;;;;;15.32;6.82;;;17.10;98.90;;;;;;4900948;29;20033;-82
2021/07/03 05:59:16;;;;;;;11.45;6.28;;;17.10;98.80;;;;;;4899984;29;20041;-82
2021/07/03 06:01:42;;;;;;;12.98;6.60;;;17.00;98.50;;;;;;4900777;29;20045;-83
2021/07/03 06:04:07;;;;;;;11.73;6.22;;;17.00;98.30;;;;;;4899914;29;20024;-83
2021/07/03 06:06:33;;;;;;;12.05;6.13;;;16.90;98.30;;;;;;4900001;29;20412;-83
2021/07/03 06:08:59;;;;;;;11.40;6.57;;;16.90;98.10;;;;;;4900988;29;20032;-82
2021/07/03 06:11:25;;;;;;;12.25;6.40;;;16.80;98.20;;;;;;4884467;29;20017;-82
2021/07/03 06:13:51;;;;;;;12.18;6.68;;;16.80;98.30;;;;;;4900254;29;20100;-82
2021/07/03 06:16:17;;;;;;;11.45;6.43;;;16.70;98.30;;;;;;4901053;29;20028;-83
2021/07/03 06:18:43;;;;;;;11.25;6.30;;;16.70;98.40;;;;;;4899308;29;20040;-82
2021/07/03 06:21:08;;;;;;;12.18;7.03;;;16.70;98.50;;;;;;4899474;29;20088;-82
2021/07/03 06:23:34;;;;;;;11.73;6.55;;;16.80;98.50;;;;;;4884225;29;20397;-82
2021/07/03 06:26:00;;;;;;;11.55;6.68;;;16.80;98.60;;;;;;4883280;29;20028;-83
2021/07/03 06:28:27;;;;;;;11.60;6.05;;;16.90;98.60;;;;;;4899649;29;20029;-82
2021/07/03 06:30:54;;;;;;;12.38;6.70;;;16.90;98.60;;;;;;4903129;29;20433;-82
2021/07/03 06:33:20;;;;;;;12.80;6.53;;;16.90;98.60;;;;;;4905077;29;20537;-85
2021/07/03 06:35:46;;;;;;;13.00;6.57;;;17.00;98.60;;;;;;4903007;29;20028;-83
2021/07/03 06:38:12;;;;;;;13.43;6.93;;;17.00;98.60;;;;;;4905426;29;20115;-83
2021/07/03 06:40:38;;;;;;;11.07;6.43;;;17.10;99.00;;;;;;4903654;29;20052;-84
2021/07/03 06:43:04;;;;;;;11.45;6.00;;;17.10;98.80;;;;;;4904667;29;20016;-83
2021/07/03 06:45:30;;;;;;;14.07;6.60;;;17.20;98.80;;;;;;4886824;29;20028;-84
2021/07/03 06:47:55;;;;;;;11.10;5.97;;;17.30;98.90;;;;;;4905313;29;20024;-84
2021/07/03 06:50:22;;;;;;;11.90;6.35;;;17.40;99.00;;;;;;4908455;29;20025;-84
2021/07/03 06:52:47;;;;;;;10.43;5.65;;;17.50;99.00;;;;;;4902915;29;20115;-84
2021/07/03 06:55:14;;;;;;;10.77;6.03;;;17.60;99.10;;;;;;4909787;29;20107;-84
2021/07/03 06:57:40;;;;;;;11.48;6.15;;;17.70;99.10;;;;;;4896174;29;20366;-84
2021/07/03 07:00:07;;;;;;;10.98;5.70;;;17.80;99.00;;;;;;4910283;29;20472;-84
2021/07/03 07:02:33;;;;;;;10.75;5.40;;;17.90;99.00;;;;;;4909551;28;20498;-84
2021/07/03 07:04:59;;;;;;;9.73;5.35;;;18.00;99.00;;;;;;4942127;28;20027;-86
2021/07/03 07:07:24;;;;;;;10.45;5.28;;;18.10;99.00;;;;;;4926435;28;20028;-85
2021/07/03 07:09:50;;;;;;;10.68;5.82;;;18.20;99.10;;;;;;4918652;29;20034;-85
2021/07/03 07:12:17;;;;;;;10.75;5.57;;;18.30;99.00;;;;;;4939199;28;20015;-85
2021/07/03 07:14:43;;;;;;;11.65;5.43;;;18.40;99.10;;;;;;4942808;29;20031;-87
2021/07/03 07:17:10;;;;;;;10.30;5.18;;;18.50;99.20;;;;;;4940803;28;20019;-84
2021/07/03 07:19:37;;;;;;;13.82;5.68;;;18.70;99.30;;;;;;4938608;28;20118;-86
2021/07/03 07:22:03;;;;;;;10.43;5.32;;;18.80;99.30;;;;;;4939686;28;20471;-86
2021/07/03 07:24:29;;;;;;;10.75;5.28;;;18.90;99.10;;;;;;4939065;28;20136;-85
2021/07/03 07:26:55;;;;;;;10.65;5.60;;;19.00;99.10;;;;;;4923327;29;20114;-85
2021/07/03 07:29:20;;;;;;;9.00;4.70;;;19.10;99.00;;;;;;4939669;28;20395;-85
2021/07/03 07:31:47;;;;;;;10.52;5.22;;;19.20;99.10;;;;;;4955184;28;20028;-84
2021/07/03 07:34:13;;;;;;;9.55;5.03;;;19.30;99.10;;;;;;4956315;28;20501;-84
2021/07/03 07:36:39;;;;;;;11.98;5.75;;;19.40;99.10;;;;;;4923477;28;20082;-84
2021/07/03 07:39:05;;;;;;;9.27;4.90;;;19.50;99.30;;;;;;4939306;28;20475;-85
2021/07/03 07:41:31;;;;;;;12.02;6.03;;;19.60;99.40;;;;;;4939474;28;20039;-84
2021/07/03 07:43:57;;;;;;;10.35;5.45;;;19.80;99.50;;;;;;4923533;29;20024;-83
2021/07/03 07:46:23;;;;;;;10.40;5.60;;;20.00;99.40;;;;;;4956353;28;20067;-83
2021/07/03 07:48:49;;;;;;;10.43;5.22;;;20.00;99.30;;;;;;4956207;28;20019;-83
2021/07/03 07:51:14;;;;;;;10.57;5.55;;;20.20;99.20;;;;;;4939046;28;20027;-87
2021/07/03 07:53:40;;;;;;;9.77;4.75;;;20.30;99.20;;;;;;4957611;28;20035;-87
2021/07/03 07:56:06;;;;;;;9.88;4.80;;;20.30;99.10;;;;;;4942000;28;20485;-84
2021/07/03 07:58:31;;;;;;;10.38;5.20;;;20.40;99.00;;;;;;4964322;28;20050;-85
2021/07/03 08:00:57;;;;;;;11.88;4.90;;;20.40;98.90;;;;;;4956168;28;20078;-86
2021/07/03 08:03:23;;;;;;;9.30;4.80;;;20.50;99.10;;;;;;4955616;28;20050;-85
2021/07/03 08:05:49;;;;;;;10.00;4.93;;;20.60;99.20;;;;;;4955649;28;20125;-84
2021/07/03 08:08:15;;;;;;;9.93;4.80;;;20.70;99.20;;;;;;4922933;28;20059;-85
2021/07/03 08:10:42;;;;;;;9.77;4.68;;;20.80;99.10;;;;;;4939287;29;20023;-87
2021/07/03 08:13:08;;;;;;;10.30;4.88;;;20.90;99.10;;;;;;4940643;28;20089;-87
2021/07/03 08:15:35;;;;;;;9.73;4.88;;;21.00;99.10;;;;;;4955537;28;20055;-86
2021/07/03 08:18:03;;;;;;;9.55;5.00;;;21.20;99.30;;;;;;4955682;28;20026;-85
2021/07/03 08:20:29;;;;;;;9.82;5.07;;;21.20;99.20;;;;;;4938907;28;20123;-89
2021/07/03 08:22:55;;;;;;;9.60;5.43;;;21.30;99.10;;;;;;4938547;28;20027;-84
2021/07/03 08:25:23;;;;;;;9.48;5.10;;;21.40;99.20;;;;;;4922905;28;20024;-88
2021/07/03 08:27:51;;;;;;;10.63;7.03;;;21.60;99.50;;;;;;4938669;29;20404;-85
2021/07/03 08:30:18;;;;;;;9.90;4.90;;;21.80;99.50;;;;;;4938512;28;20146;-83
2021/07/03 08:32:44;;;;;;;9.45;4.82;;;22.00;99.50;;;;;;4975321;23;20022;-82
2021/07/03 08:35:12;;;;;;;8.98;4.07;;;22.10;99.40;;;;;;4979702;28;20034;-82
2021/07/03 08:37:38;;;;;;;12.38;4.30;;;22.40;99.50;;;;;;4985783;28;20459;-83
2021/07/03 08:40:05;;;;;;;11.15;5.32;;;22.40;99.10;;;;;;4985444;28;20087;-83
2021/07/03 08:42:30;;;;;;;10.63;4.72;;;22.50;99.10;;;;;;4989265;28;20031;-82
2021/07/03 08:44:56;;;;;;;9.23;4.80;;;22.60;99.20;;;;;;4994089;28;20085;-83
2021/07/03 08:47:22;;;;;;;12.68;4.75;;;22.70;99.00;;;;;;4991753;28;20026;-83
2021/07/03 08:49:57;;;;;;;8.75;4.30;;;22.80;99.00;;;;;;4995362;28;20392;-83
2021/07/03 08:52:26;;;;;;;10.38;4.43;;;22.90;99.00;;;;;;4996293;28;20112;-83
2021/07/03 08:55:16;;;;;;;10.95;5.13;;;23.10;99.30;;;;;;5002444;28;20540;-83
2021/07/03 08:57:49;;;;;;;9.82;5.07;;;23.30;99.00;;;;;;4992137;28;20102;-83
2021/07/03 09:00:36;;;;;;;11.00;6.25;;;23.30;99.00;;;;;;5003245;28;20026;-82
2021/07/03 09:03:18;;;;;;;10.13;4.72;;;23.50;99.00;;;;;;5003828;28;20037;-84
2021/07/03 09:05:50;;;;;;;9.63;4.57;;;23.60;98.90;;;;;;5000650;28;20482;-83
2021/07/03 09:08:16;;;;;;;10.07;4.35;;;23.70;98.90;;;;;;5000029;28;20040;-83
2021/07/03 09:10:42;;;;;;;11.27;5.55;;;23.70;98.80;;;;;;5005330;28;20018;-83
2021/07/03 09:13:08;;;;;;;11.35;5.55;;;23.80;98.90;;;;;;5004164;28;20042;-83
2021/07/03 09:15:36;;;;;;;8.68;4.72;;;23.90;99.00;;;;;;5003377;28;20385;-84
2021/07/03 09:18:03;;;;;;;11.35;5.00;;;24.00;98.80;;;;;;5000787;28;20054;-84
2021/07/03 09:20:37;;;;;;;9.35;4.60;;;24.00;98.60;;;;;;5000776;28;20077;-85
2021/07/03 09:23:20;;;;;;;8.35;3.83;;;24.00;98.60;;;;;;5001679;28;20018;-84
2021/07/03 09:25:53;;;;;;;8.60;4.20;;;24.20;98.80;;;;;;4983574;28;20035;-84
2021/07/03 09:28:22;;;;;;;8.15;4.03;;;24.30;98.50;;;;;;4997861;28;20073;-83
2021/07/03 09:30:50;;;;;;;8.52;4.15;;;24.30;98.60;;;;;;4994660;28;20085;-84
2021/07/03 09:33:18;;;;;;;8.20;4.07;;;24.40;99.20;;;;;;5002602;28;20070;-84
2021/07/03 09:35:51;;;;;;;8.25;3.53;;;24.70;99.50;;;;;;5005268;28;20023;-84
2021/07/03 09:38:17;;;;;;;12.57;4.00;;;24.90;99.30;;;;;;5004648;28;20038;-85
2021/07/03 09:40:43;;;;;;;8.38;3.90;;;25.10;99.20;;;;;;5002645;28;20054;-84
2021/07/03 09:43:10;;;;;;;9.55;4.47;;;25.20;99.10;;;;;;5003456;28;20022;-85
2021/07/03 09:45:38;;;;;;;14.10;6.13;;;25.30;98.60;;;;;;5000556;28;20465;-84
2021/07/03 09:48:10;;;;;;;8.30;3.90;;;25.20;97.90;;;;;;5002140;28;20374;-84
2021/07/03 09:50:38;;;;;;;9.88;4.78;;;25.20;98.40;;;;;;5002571;28;20049;-83
2021/07/03 09:53:05;;;;;;;9.23;4.80;;;25.20;98.30;;;;;;4999578;28;20026;-84
2021/07/03 09:55:31;;;;;;;7.47;3.72;;;25.20;98.30;;;;;;4994460;28;20113;-85
2021/07/03 09:57:57;;;;;;;8.77;4.15;;;25.30;98.70;;;;;;5000248;28;20109;-85
2021/07/03 10:00:23;;;;;;;8.57;4.05;;;25.50;98.90;;;;;;5003814;28;20045;-85
2021/07/03 10:02:49;;;;;;;8.68;3.50;;;25.70;99.20;;;;;;5002284;28;20022;-85
2021/07/03 10:05:18;;;;;;;8.07;4.32;;;26.00;99.50;;;;;;4997633;28;20037;-85
2021/07/03 10:07:48;;;;;;;7.68;3.92;;;26.20;98.90;;;;;;5002292;28;20027;-84
2021/07/03 10:10:18;;;;;;;9.75;3.83;;;26.30;98.50;;;;;;5000064;28;20123;-84
2021/07/03 10:12:49;;;;;;;7.57;3.80;;;26.40;98.80;;;;;;4996912;28;20014;-84
2021/07/03 10:15:32;;;;;;;7.55;3.35;;;26.50;98.50;;;;;;5002823;28;20042;-84
2021/07/03 10:18:19;;;;;;;9.18;4.03;;;26.50;98.40;;;;;;5001233;28;20023;-85
2021/07/03 10:20:45;;;;;;;9.80;3.92;;;26.60;98.60;;;;;;4991608;28;20053;-84
2021/07/03 10:23:11;;;;;;;8.98;4.20;;;26.70;98.10;;;;;;4998474;28;20018;-86
2021/07/03 10:25:43;;;;;;;6.95;3.55;;;26.50;97.90;;;;;;5002608;28;20023;-84
2021/07/03 10:28:12;;;;;;;10.30;4.85;;;26.50;98.20;;;;;;4996206;28;20027;-85
2021/07/03 10:30:40;;;;;;;15.07;9.43;;;26.70;98.50;;;;;;5001603;28;20034;-85
2021/07/03 10:33:15;;;;;;;7.88;3.78;;;26.70;98.50;;;;;;5003170;28;20039;-84
2021/07/03 10:35:45;;;;;;;8.57;3.60;;;27.00;99.20;;;;;;4998862;28;20022;-84
2021/07/03 10:38:20;;;;;;;7.15;3.50;;;27.50;99.70;;;;;;5004512;28;20382;-85
2021/07/03 10:40:47;;;;;;;7.25;3.30;;;28.00;99.90;;;;;;5002067;28;20106;-84
2021/07/03 10:43:14;;;;;;;10.70;4.68;;;28.50;99.90;;;;;;5003506;28;20467;-84
2021/07/03 10:45:53;;;;;;;9.32;4.30;;;28.60;98.60;;;;;;4997633;28;20034;-84
2021/07/03 10:48:22;;;;;;;8.38;3.78;;;28.50;97.70;;;;;;4992315;28;20076;-84
2021/07/03 10:50:49;;;;;;;9.38;4.05;;;28.30;97.70;;;;;;4993315;28;20029;-84
2021/07/03 10:53:29;;;;;;;8.15;3.97;;;28.10;97.30;;;;;;4990711;28;20034;-84
2021/07/03 10:56:11;;;;;;;9.77;4.68;;;28.10;97.80;;;;;;4990836;28;20045;-84
2021/07/03 10:58:39;;;;;;;10.18;5.20;;;28.00;97.20;;;;;;4988845;28;20030;-89
2021/07/03 11:01:11;;;;;;;8.23;4.28;;;27.90;97.40;;;;;;4976446;28;20118;-84
2021/07/03 11:03:55;;;;;;;8.27;3.78;;;27.90;97.80;;;;;;4991107;28;20482;-84
2021/07/03 11:06:22;;;;;;;7.55;3.50;;;28.20;98.90;;;;;;4989324;28;20454;-84
2021/07/03 11:08:49;;;;;;;7.53;3.80;;;28.70;99.60;;;;;;4992999;28;20058;-84
2021/07/03 11:11:16;;;;;;;7.28;3.25;;;29.30;99.80;;;;;;4989950;28;20469;-83
2021/07/03 11:13:44;;;;;;;7.00;3.55;;;29.90;99.90;;;;;;4992302;28;20030;-84
2021/07/03 11:16:15;;;;;;;7.15;3.55;;;30.30;99.10;;;;;;4993613;28;20019;-84
2021/07/03 11:18:41;;;;;;;6.22;3.30;;;30.20;97.50;;;;;;4993257;28;20378;-84
2021/07/03 11:21:09;;;;;;;6.75;3.67;;;30.10;97.00;;;;;;4993324;28;20490;-83
2021/07/03 11:23:36;;;;;;;7.78;4.20;;;29.70;96.10;;;;;;4993983;28;20030;-84
2021/07/03 11:26:11;;;;;;;7.78;3.80;;;29.20;95.50;;;;;;4994116;28;20085;-84
2021/07/03 11:28:37;;;;;;;7.07;3.65;;;29.00;96.40;;;;;;4993682;28;20031;-84
2021/07/03 11:31:04;;;;;;;7.97;3.50;;;29.30;98.90;;;;;;4988227;28;20474;-84
2021/07/03 11:33:31;;;;;;;7.55;3.80;;;30.30;99.90;;;;;;4993084;28;20100;-84
2021/07/03 11:35:57;;;;;;;6.78;3.53;;;31.40;99.90;;;;;;4993576;28;20014;-83
2021/07/03 11:38:24;;;;;;;7.18;3.63;;;32.60;99.90;;;;;;4990906;28;20034;-85
2021/07/03 11:40:51;;;;;;;7.10;3.67;;;33.40;99.90;;;;;;4993692;28;20381;-83
2021/07/03 11:43:17;;;;;;;8.75;3.60;;;34.00;99.90;;;;;;4992321;28;20038;-84
2021/07/03 11:45:44;;;;;;;6.82;3.42;;;34.80;99.90;;;;;;4993459;28;20112;-83
2021/07/03 11:48:12;;;;;;;6.90;3.40;;;35.60;99.90;;;;;;4994550;28;20018;-86
2021/07/03 11:50:40;;;;;;;6.68;3.30;;;36.30;99.20;;;;;;4998668;28;20374;-86
2021/07/03 11:53:09;;;;;;;6.32;3.30;;;36.30;95.10;;;;;;4989616;28;20603;-86
2021/07/03 11:55:38;;;;;;;7.97;3.47;;;35.40;93.20;;;;;;4974988;28;20069;-87
2021/07/03 11:58:05;;;;;;;7.00;3.63;;;34.40;92.10;;;;;;4990271;28;20413;-84
2021/07/03 12:00:35;;;;;;;6.65;3.50;;;33.40;92.40;;;;;;4992794;28;20038;-85
2021/07/03 12:03:02;;;;;;;7.43;3.38;;;32.50;93.30;;;;;;4992696;28;20068;-84
2021/07/03 12:05:34;;;;;;;8.27;4.18;;;32.60;96.50;;;;;;4993148;28;20498;-85
2021/07/03 12:08:02;;;;;;;8.18;3.78;;;33.10;98.60;;;;;;4991836;28;20104;-83
2021/07/03 12:10:39;;;;;;;6.75;3.33;;;34.20;99.90;;;;;;4993057;28;20525;-83
2021/07/03 12:13:07;;;;;;;6.65;3.30;;;35.60;99.90;;;;;;4988763;28;20061;-83
2021/07/03 12:15:34;;;;;;;6.35;3.30;;;36.90;99.90;;;;;;4965963;28;20035;-83
2021/07/03 12:17:59;;;;;;;6.88;3.40;;;37.90;99.90;;;;;;4992363;28;20478;-83
2021/07/03 12:20:26;;;;;;;7.03;3.30;;;39.10;99.90;;;;;;4992783;28;20052;-84
2021/07/03 12:23:10;;;;;;;6.07;3.25;;;40.00;98.30;;;;;;4992356;28;20028;-84
2021/07/03 12:25:35;;;;;;;5.70;3.10;;;40.90;98.90;;;;;;4972728;28;20454;-84
2021/07/03 12:28:05;;;;;;;7.20;4.05;;;41.50;97.20;;;;;;4992672;28;20029;-84
2021/07/03 12:30:32;;;;;;;7.85;3.40;;;42.10;97.30;;;;;;4989909;28;20030;-84
2021/07/03 12:33:04;;;;;;;5.68;2.88;;;43.00;97.50;;;;;;4986789;28;20064;-84
2021/07/03 12:35:52;;;;;;;6.33;3.23;;;43.80;96.90;;;;;;4992037;28;20370;-84
2021/07/03 12:38:24;;;;;;;5.93;3.42;;;44.40;97.40;;;;;;4992196;28;20029;-84
2021/07/03 12:40:49;;;;;;;4.15;2.53;;;44.40;94.40;;;;;;4988661;28;20054;-84
2021/07/03 12:43:15;;;;;;;5.28;2.80;;;44.50;92.80;;;;;;4974718;28;20038;-84
2021/07/03 12:45:41;;;;;;;6.32;2.88;;;43.70;90.30;;;;;;4992638;28;20057;-83
2021/07/03 12:48:15;;;;;;;4.75;2.75;;;42.50;90.30;;;;;;4992778;28;20110;-83
2021/07/03 12:50:56;;;;;;;6.65;3.10;;;41.60;89.80;;;;;;4991007;28;20022;-83
2021/07/03 12:53:22;;;;;;;5.95;2.80;;;40.50;90.00;;;;;;4992266;28;20449;-84
2021/07/03 12:55:49;;;;;;;6.35;3.10;;;40.10;92.30;;;;;;4986723;28;20046;-84
2021/07/03 12:58:34;;;;;;;8.07;4.45;;;39.40;90.90;;;;;;4990732;28;20026;-84
2021/07/03 13:01:01;;;;;;;7.53;3.78;;;38.80;91.80;;;;;;4991907;28;20038;-84
2021/07/03 13:03:28;;;;;;;8.10;4.40;;;38.30;91.70;;;;;;4992343;28;20113;-83
2021/07/03 13:06:11;;;;;;;7.38;4.05;;;37.80;91.80;;;;;;4992621;28;20105;-84
2021/07/03 13:08:37;;;;;;;;;;;37.20;92.10;;;;;;4992903;28;20027;-84
2021/07/03 13:11:06;;;;;;;7.40;3.60;;;38.10;99.10;;;;;;4992676;28;19917;-83
2021/07/03 13:13:32;;;;;;;4.90;3.05;;;39.70;99.80;;;;;;4990783;28;20030;-84
2021/07/03 13:15:58;;;;;;;4.95;2.95;;;41.20;99.10;;;;;;4992325;28;20359;-84
2021/07/03 13:18:23;;;;;;;5.05;2.80;;;42.40;97.70;;;;;;4992166;28;20022;-84
2021/07/03 13:20:49;;;;;;;6.10;3.40;;;43.40;97.00;;;;;;4988707;28;20046;-84
2021/07/03 13:23:15;;;;;;;5.07;2.92;;;42.80;91.50;;;;;;4992401;28;20050;-84
2021/07/03 13:25:42;;;;;;;9.60;6.72;;;41.70;90.80;;;;;;4992179;28;20027;-87
2021/07/03 13:28:10;;;;;;;9.45;5.70;;;41.10;93.40;;;;;;4991802;28;20022;-83
2021/07/03 13:30:36;;;;;;;7.20;3.67;;;41.00;93.50;;;;;;4994188;28;20072;-83
2021/07/03 13:33:02;;;;;;;8.23;3.20;;;40.80;92.80;;;;;;4990515;28;20040;-83
2021/07/03 13:35:28;;;;;;;5.07;2.90;;;40.40;92.70;;;;;;4978711;28;20034;-83
2021/07/03 13:37:53;;;;;;;5.28;2.90;;;40.60;96.60;;;;;;4995602;28;20470;-83
2021/07/03 13:43:42;;;;;;;5.28;2.78;;;42.20;99.30;;;;;;4996793;28;20161;-83
2021/07/03 13:49:30;;;;;;;6.82;2.90;;;45.40;99.00;;;;;;4997211;28;20085;-83
2021/07/03 13:55:18;;;;;;;7.30;3.97;;;47.40;96.60;;;;;;4997065;28;20026;-83
2021/07/03 14:01:08;;;;;;;6.43;3.10;;;47.50;90.30;;;;;;4996683;28;20049;-83
2021/07/03 14:06:55;;;;;;;4.55;2.90;;;45.50;93.90;;;;;;4996928;28;20045;-83
2021/07/03 14:12:43;;;;;;;3.55;2.70;;;47.80;97.10;;;;;;4996806;28;20029;-83
2021/07/03 14:18:33;;;;;;;6.18;3.10;;;49.20;95.00;;;;;;4996712;28;20389;-83
2021/07/03 14:24:21;;;;;;;4.15;2.78;;;50.20;95.20;;;;;;4996653;28;20161;-84
2021/07/03 14:30:08;;;;;;;;;;;51.30;95.10;;;;;;4997064;28;20049;-84
2021/07/03 14:39:45;;;;;;;5.28;3.00;;;51.30;92.90;;;;;;4996048;28;20065;-83
2021/07/03 14:45:32;;;;;;;;;;;50.90;94.80;;;;;;4996083;28;20033;-86
2021/07/03 14:51:20;;;;;;;4.45;3.10;;;52.00;93.80;;;;;;4995615;28;20038;-83
2021/07/03 14:57:09;;;;;;;4.70;3.20;;;51.70;92.10;;;;;;4995869;28;20449;-82
2021/07/03 15:02:57;;;;;;;5.78;2.97;;;51.70;92.40;;;;;;4995692;28;20033;-83
2021/07/03 15:08:44;;;;;;;4.67;2.67;;;48.20;78.80;;;;;;4995700;28;20085;-82
2021/07/03 15:14:32;;;;;;;8.20;5.18;;;45.10;93.20;;;;;;4995452;28;20037;-83
2021/07/03 15:20:19;;;;;;;6.07;3.05;;;43.30;86.30;;;;;;4995454;28;20025;-83